createdAt,value
2022-11-09T00:01:22.541Z,8.85
2022-11-09T00:04:03.982Z,6.47
2022-11-09T00:06:32.623Z,7.20
2022-11-09T00:09:07.155Z,9.23
2022-11-09T00:11:37.754Z,7.15
2022-11-09T00:14:07.044Z,9.32
2022-11-09T00:16:35.151Z,8.77
2022-11-09T00:19:03.079Z,10.10
2022-11-09T00:21:30.662Z,8.18
2022-11-09T00:23:58.463Z,9.07
2022-11-09T00:26:26.863Z,9.60
2022-11-09T00:28:54.559Z,14.30
2022-11-09T00:31:26.956Z,16.08
2022-11-09T00:33:57.149Z,17.17
2022-11-09T00:36:26.416Z,12.60
2022-11-09T00:38:56.846Z,13.52
2022-11-09T00:41:26.592Z,11.20
2022-11-09T00:43:56.306Z,9.60
2022-11-09T00:46:24.876Z,6.93
2022-11-09T00:48:56.009Z,7.10
2022-11-09T00:51:23.969Z,8.43
2022-11-09T00:53:54.751Z,9.93
2022-11-09T00:56:25.425Z,8.90
2022-11-09T00:58:56.064Z,9.70
2022-11-09T01:01:25.418Z,8.10
2022-11-09T01:03:53.164Z,9.18
2022-11-09T01:06:24.517Z,8.10
2022-11-09T01:08:53.715Z,8.27
2022-11-09T01:11:22.862Z,6.05
2022-11-09T01:13:55.553Z,7.88
2022-11-09T01:16:24.613Z,6.53
2022-11-09T01:18:57.041Z,7.05
2022-11-09T01:21:28.166Z,8.85
2022-11-09T01:23:58.568Z,6.15
2022-11-09T01:26:28.969Z,6.85
2022-11-09T01:28:56.790Z,7.07
2022-11-09T01:31:26.086Z,8.18
2022-11-09T01:33:54.125Z,7.35
2022-11-09T01:36:23.537Z,7.18
2022-11-09T01:38:51.689Z,5.05
2022-11-09T01:41:28.706Z,7.03
2022-11-09T01:44:23.172Z,6.10
2022-11-09T01:46:57.278Z,7.35
2022-11-09T01:49:38.379Z,6.65
2022-11-09T01:52:12.534Z,7.32
2022-11-09T01:54:49.364Z,6.07
2022-11-09T01:57:26.537Z,8.65
2022-11-09T02:00:02.078Z,10.02
2022-11-09T02:02:46.287Z,8.95
2022-11-09T02:05:21.440Z,6.35
2022-11-09T02:07:52.545Z,6.97
2022-11-09T02:10:39.225Z,5.20
2022-11-09T02:13:10.113Z,6.32
2022-11-09T02:15:45.457Z,6.07
2022-11-09T02:18:14.788Z,7.40
2022-11-09T02:20:49.044Z,6.03
2022-11-09T02:23:17.150Z,9.40
2022-11-09T02:25:50.398Z,5.65
2022-11-09T02:28:18.808Z,5.03
2022-11-09T02:30:52.716Z,5.57
2022-11-09T02:33:20.829Z,6.78
2022-11-09T02:35:48.940Z,6.55
2022-11-09T02:38:16.602Z,8.23
2022-11-09T02:40:48.333Z,6.65
2022-11-09T02:43:18.466Z,8.02
2022-11-09T02:45:46.739Z,7.22
2022-11-09T02:48:15.661Z,7.18
2022-11-09T02:50:43.345Z,6.85
2022-11-09T02:53:11.198Z,7.20
2022-11-09T02:55:43.033Z,7.38
2022-11-09T02:58:10.910Z,6.85
2022-11-09T03:00:40.605Z,5.57
2022-11-09T03:03:08.559Z,8.63
2022-11-09T03:05:36.290Z,7.35
2022-11-09T03:08:04.060Z,7.55
2022-11-09T03:10:35.541Z,6.60
2022-11-09T03:13:03.553Z,8.10
2022-11-09T03:15:31.308Z,8.30
2022-11-09T03:17:58.941Z,8.38
2022-11-09T03:20:26.741Z,8.23
2022-11-09T03:22:58.276Z,11.65
2022-11-09T03:25:27.328Z,6.53
2022-11-09T03:28:00.521Z,8.05
2022-11-09T03:30:28.521Z,8.63
2022-11-09T03:33:01.849Z,9.15
2022-11-09T03:35:29.794Z,8.82
2022-11-09T03:37:57.799Z,10.10
2022-11-09T03:40:26.958Z,10.68
2022-11-09T03:42:54.628Z,9.50
2022-11-09T03:45:22.373Z,8.35
2022-11-09T03:47:50.326Z,9.77
2022-11-09T03:50:18.169Z,9.57
2022-11-09T03:52:46.844Z,10.40
2022-11-09T03:55:14.987Z,10.32
2022-11-09T03:57:44.790Z,7.88
2022-11-09T04:00:14.733Z,9.38
2022-11-09T04:02:42.336Z,10.07
2022-11-09T04:05:10.793Z,10.52
2022-11-09T04:07:38.886Z,9.75
2022-11-09T04:10:07.727Z,8.93
2022-11-09T04:12:35.355Z,10.27
2022-11-09T04:15:03.685Z,7.57
2022-11-09T04:17:33.371Z,8.25
2022-11-09T04:20:02.072Z,8.75
2022-11-09T04:22:29.890Z,9.45
2022-11-09T04:24:57.497Z,8.93
2022-11-09T04:27:25.412Z,7.65
2022-11-09T04:29:53.087Z,8.65
2022-11-09T04:32:21.024Z,8.98
2022-11-09T04:34:48.806Z,7.82
2022-11-09T04:37:16.582Z,9.25
2022-11-09T04:39:44.360Z,7.55
2022-11-09T04:42:12.092Z,8.82
2022-11-09T04:44:40.213Z,10.85
2022-11-09T04:47:08.170Z,7.53
2022-11-09T04:49:36.082Z,8.85
2022-11-09T04:52:05.608Z,10.38
2022-11-09T04:54:34.025Z,8.32
2022-11-09T04:57:01.791Z,7.35
2022-11-09T04:59:29.439Z,9.05
2022-11-09T05:01:57.060Z,8.48
2022-11-09T05:04:24.706Z,8.05
2022-11-09T05:06:52.401Z,10.05
2022-11-09T05:09:20.242Z,8.00
2022-11-09T05:11:48.276Z,8.00
2022-11-09T05:14:15.917Z,7.53
2022-11-09T05:16:43.609Z,7.93
2022-11-09T05:19:13.680Z,8.77
2022-11-09T05:21:41.632Z,7.80
2022-11-09T05:24:09.401Z,11.02
2022-11-09T05:26:40.118Z,9.25
2022-11-09T05:29:10.474Z,9.80
2022-11-09T05:31:40.410Z,10.45
2022-11-09T05:34:12.509Z,9.98
2022-11-09T05:36:40.306Z,11.75
2022-11-09T05:39:08.511Z,11.40
2022-11-09T05:41:36.341Z,12.15
2022-11-09T05:44:05.864Z,12.45
2022-11-09T05:46:34.379Z,13.35
2022-11-09T05:49:02.126Z,14.25
2022-11-09T05:51:29.761Z,12.05
2022-11-09T05:53:58.541Z,10.27
2022-11-09T05:56:26.295Z,10.15
2022-11-09T05:58:54.127Z,11.98
2022-11-09T06:01:21.736Z,12.00
2022-11-09T06:03:49.550Z,10.93
2022-11-09T06:06:18.033Z,12.02
2022-11-09T06:08:45.830Z,10.70
2022-11-09T06:11:18.555Z,10.80
2022-11-09T06:13:50.802Z,11.15
2022-11-09T06:16:18.700Z,12.88
2022-11-09T06:18:46.409Z,11.77
2022-11-09T06:21:14.082Z,15.50
2022-11-09T06:23:41.857Z,10.63
2022-11-09T06:26:11.421Z,11.70
2022-11-09T06:28:40.703Z,16.48
2022-11-09T06:31:15.744Z,16.42
2022-11-09T06:33:46.490Z,21.55
2022-11-09T06:36:16.029Z,15.20
2022-11-09T06:38:43.735Z,18.48
2022-11-09T06:41:11.405Z,17.13
2022-11-09T06:43:39.165Z,15.48
2022-11-09T06:46:07.315Z,16.08
2022-11-09T06:48:34.947Z,15.40
2022-11-09T06:51:04.242Z,14.80
2022-11-09T06:53:35.464Z,13.75
2022-11-09T06:56:06.965Z,11.85
2022-11-09T06:58:35.349Z,12.00
2022-11-09T07:01:12.127Z,10.32
2022-11-09T07:06:09.794Z,12.32
2022-11-09T07:08:39.450Z,12.70
2022-11-09T07:11:11.275Z,13.05
2022-11-09T07:13:40.554Z,12.70
2022-11-09T07:16:12.992Z,13.55
2022-11-09T07:18:42.169Z,19.45
2022-11-09T07:21:14.455Z,12.73
2022-11-09T07:23:42.914Z,12.48
2022-11-09T07:26:10.826Z,12.68
2022-11-09T07:28:38.634Z,15.05
2022-11-09T07:31:06.549Z,13.07
2022-11-09T07:33:34.613Z,15.00
2022-11-09T07:36:04.636Z,14.27
2022-11-09T07:38:32.271Z,14.82
2022-11-09T07:41:01.646Z,16.30
2022-11-09T07:43:30.386Z,13.55
2022-11-09T07:46:03.926Z,17.05
2022-11-09T07:48:31.757Z,9.68
2022-11-09T07:51:01.745Z,14.95
2022-11-09T07:53:29.799Z,14.85
2022-11-09T07:55:59.726Z,18.48
2022-11-09T07:58:28.160Z,17.40
2022-11-09T08:00:56.345Z,14.27
2022-11-09T08:03:25.657Z,15.75
2022-11-09T08:05:53.443Z,16.30
2022-11-09T08:08:21.195Z,24.52
2022-11-09T08:10:52.545Z,17.73
2022-11-09T08:13:22.095Z,21.58
2022-11-09T08:15:50.099Z,22.15
2022-11-09T08:18:22.860Z,19.75
2022-11-09T08:20:51.617Z,20.40
2022-11-09T08:23:21.890Z,21.10
2022-11-09T08:25:50.683Z,22.75
2022-11-09T08:28:19.358Z,16.83
2022-11-09T08:30:56.921Z,17.80
2022-11-09T08:35:53.447Z,24.85
2022-11-09T08:38:22.592Z,18.35
2022-11-09T08:40:50.898Z,18.20
2022-11-09T08:43:18.921Z,16.95
2022-11-09T08:45:47.619Z,15.05
2022-11-09T08:48:17.263Z,15.98
2022-11-09T08:50:45.162Z,17.35
2022-11-09T08:53:13.165Z,14.48
2022-11-09T08:55:47.016Z,17.42
2022-11-09T08:59:59.491Z,10.30
2022-11-09T09:02:27.310Z,9.73
2022-11-09T09:04:56.263Z,12.75
2022-11-09T09:07:24.289Z,17.38
2022-11-09T09:09:52.545Z,13.32
2022-11-09T09:12:20.145Z,9.02
2022-11-09T09:14:48.243Z,8.85
2022-11-09T09:17:16.091Z,10.10
2022-11-09T09:19:48.761Z,17.15
2022-11-09T09:22:18.399Z,14.90
2022-11-09T09:24:46.200Z,21.30
2022-11-09T09:27:14.688Z,15.27
2022-11-09T09:29:42.331Z,9.40
2022-11-09T09:32:10.015Z,10.90
2022-11-09T09:34:37.558Z,9.38
2022-11-09T09:37:05.201Z,10.85
2022-11-09T09:39:32.902Z,9.60
2022-11-09T09:42:05.027Z,9.35
2022-11-09T09:44:37.057Z,6.97
2022-11-09T09:47:13.479Z,9.73
2022-11-09T09:49:58.338Z,8.35
2022-11-09T09:52:50.606Z,8.57
2022-11-09T09:55:39.285Z,10.00
2022-11-09T09:58:29.098Z,13.48
2022-11-09T10:01:06.432Z,7.63
2022-11-09T10:03:34.416Z,8.10
2022-11-09T10:06:27.766Z,7.85
2022-11-09T10:09:14.222Z,8.43
2022-11-09T10:12:00.939Z,6.57
2022-11-09T10:14:51.521Z,9.95
2022-11-09T10:17:33.866Z,12.63
2022-11-09T10:20:19.793Z,7.85
2022-11-09T10:22:50.362Z,6.65
2022-11-09T10:25:43.298Z,5.93
2022-11-09T10:28:17.106Z,4.60
2022-11-09T10:30:45.517Z,6.82
2022-11-09T10:33:21.523Z,5.68
2022-11-09T10:35:57.484Z,5.97
2022-11-09T10:38:33.710Z,5.85
2022-11-09T10:41:28.845Z,10.45
2022-11-09T10:44:19.898Z,9.00
2022-11-09T10:47:16.365Z,10.20
2022-11-09T10:50:22.239Z,12.98
2022-11-09T10:53:22.201Z,8.27
2022-11-09T10:56:20.289Z,7.50
2022-11-09T10:59:48.444Z,6.22
2022-11-09T11:02:44.046Z,7.05
2022-11-09T11:05:31.375Z,8.63
2022-11-09T11:08:29.487Z,8.93
2022-11-09T11:11:35.153Z,16.58
2022-11-09T11:14:35.714Z,16.80
2022-11-09T11:17:24.771Z,20.50
2022-11-09T11:20:33.303Z,17.65
2022-11-09T11:23:25.395Z,19.35
2022-11-09T11:26:25.991Z,12.30
2022-11-09T11:29:15.528Z,15.75
2022-11-09T11:32:01.942Z,15.98
2022-11-09T11:35:04.726Z,12.10
2022-11-09T11:38:15.176Z,13.90
2022-11-09T11:41:19.457Z,14.70
2022-11-09T11:44:41.537Z,11.30
2022-11-09T11:47:37.535Z,12.25
2022-11-09T11:50:36.407Z,11.15
2022-11-09T11:54:10.839Z,14.10
2022-11-09T11:57:20.154Z,11.93
2022-11-09T12:00:19.178Z,12.30
2022-11-09T12:03:44.130Z,10.57
2022-11-09T12:06:39.640Z,13.10
2022-11-09T12:09:40.243Z,11.80
2022-11-09T12:12:47.598Z,9.27
2022-11-09T12:16:03.642Z,10.85
2022-11-09T12:18:50.246Z,8.27
2022-11-09T12:21:45.601Z,7.10
2022-11-09T12:24:50.014Z,9.68
2022-11-09T12:27:45.658Z,6.55
2022-11-09T12:30:53.458Z,11.00
2022-11-09T12:33:43.880Z,7.80
2022-11-09T12:36:52.931Z,11.15
2022-11-09T12:39:45.856Z,11.25
2022-11-09T12:42:43.448Z,13.85
2022-11-09T12:45:34.555Z,20.10
2022-11-09T12:48:30.734Z,73.43
2022-11-09T12:51:18.263Z,83.32
2022-11-09T12:54:12.737Z,79.63
2022-11-09T12:57:04.809Z,72.40
2022-11-09T12:59:57.108Z,63.40
2022-11-09T13:02:55.595Z,41.20
2022-11-09T13:05:43.314Z,31.83
2022-11-09T13:11:24.042Z,26.50
2022-11-09T13:14:22.259Z,21.15
2022-11-09T13:17:28.724Z,15.52
2022-11-09T13:20:53.389Z,12.93
2022-11-09T13:26:46.744Z,25.48
2022-11-09T13:29:41.831Z,53.00
2022-11-09T13:32:33.712Z,59.78
2022-11-09T13:35:42.221Z,50.90
2022-11-09T13:38:32.497Z,47.42
2022-11-09T13:41:32.073Z,47.22
2022-11-09T13:44:38.832Z,47.70
2022-11-09T13:47:35.305Z,44.28
2022-11-09T13:50:27.332Z,30.50
2022-11-09T13:53:53.097Z,25.60
2022-11-09T13:56:41.281Z,22.55
2022-11-09T13:59:32.741Z,15.52
2022-11-09T14:02:24.786Z,12.15
2022-11-09T14:05:30.228Z,14.75
2022-11-09T14:08:40.314Z,11.40
2022-11-09T14:11:36.645Z,10.20
2022-11-09T14:15:00.234Z,10.57
2022-11-09T14:18:19.817Z,13.60
2022-11-09T14:21:21.358Z,12.57
2022-11-09T14:24:22.474Z,14.88
2022-11-09T14:27:10.010Z,17.80
2022-11-09T14:30:02.618Z,13.85
2022-11-09T14:32:51.494Z,12.93
2022-11-09T14:35:40.625Z,13.20
2022-11-09T14:38:47.912Z,16.25
2022-11-09T14:41:35.238Z,11.27
2022-11-09T14:44:28.902Z,10.20
2022-11-09T14:47:18.931Z,11.63
2022-11-09T14:50:12.977Z,12.40
2022-11-09T14:53:01.432Z,12.43
2022-11-09T14:55:47.839Z,12.48
2022-11-09T14:58:39.750Z,12.90
2022-11-09T15:01:27.445Z,8.20
2022-11-09T15:04:21.986Z,8.05
2022-11-09T15:07:19.238Z,7.20
2022-11-09T15:10:20.512Z,7.88
2022-11-09T15:13:07.040Z,7.85
2022-11-09T15:15:55.120Z,6.05
2022-11-09T15:18:46.847Z,6.90
2022-11-09T15:21:34.659Z,6.38
2022-11-09T15:24:23.188Z,8.65
2022-11-09T15:27:36.047Z,8.38
2022-11-09T15:30:36.166Z,7.50
2022-11-09T15:33:39.895Z,5.10
2022-11-09T15:36:31.584Z,7.07
2022-11-09T15:39:22.898Z,9.82
2022-11-09T15:42:14.101Z,9.65
2022-11-09T15:45:00.389Z,10.80
2022-11-09T15:47:56.062Z,8.60
2022-11-09T15:50:42.465Z,7.60
2022-11-09T15:53:28.462Z,6.35
2022-11-09T15:56:23.587Z,7.15
2022-11-09T15:59:18.436Z,5.40
2022-11-09T16:02:05.017Z,7.20
2022-11-09T16:04:51.212Z,10.15
2022-11-09T16:07:37.250Z,6.63
2022-11-09T16:10:23.635Z,6.97
2022-11-09T16:13:10.868Z,6.20
2022-11-09T16:16:05.725Z,3.33
2022-11-09T16:18:52.046Z,5.43
2022-11-09T16:21:38.211Z,3.25
2022-11-09T16:24:25.060Z,4.43
2022-11-09T16:27:17.219Z,4.57
2022-11-09T16:30:17.789Z,5.60
2022-11-09T16:33:04.453Z,5.05
2022-11-09T16:35:50.572Z,2.88
2022-11-09T16:38:42.243Z,3.85
2022-11-09T16:41:30.837Z,5.60
2022-11-09T16:44:20.575Z,4.93
2022-11-09T16:47:12.686Z,5.30
2022-11-09T16:49:58.993Z,6.90
2022-11-09T16:52:46.042Z,4.15
2022-11-09T16:55:32.447Z,5.63
2022-11-09T16:58:19.220Z,3.65
2022-11-09T17:01:12.004Z,4.65
2022-11-09T17:03:59.348Z,3.55
2022-11-09T17:06:45.484Z,4.70
2022-11-09T17:09:35.484Z,4.78
2022-11-09T17:12:21.686Z,4.80
2022-11-09T17:15:08.311Z,5.07
2022-11-09T17:17:55.254Z,4.65
2022-11-09T17:20:46.846Z,6.38
2022-11-09T17:23:34.043Z,4.13
2022-11-09T17:26:22.029Z,4.40
2022-11-09T17:29:07.999Z,4.82
2022-11-09T17:31:56.674Z,6.22
2022-11-09T17:34:43.127Z,7.63
2022-11-09T17:37:29.556Z,7.75
2022-11-09T17:40:17.375Z,7.23
2022-11-09T17:43:05.073Z,6.57
2022-11-09T17:45:51.418Z,7.00
2022-11-09T17:48:39.097Z,7.05
2022-11-09T17:51:25.522Z,9.48
2022-11-09T17:54:12.557Z,7.18
2022-11-09T17:57:01.103Z,5.40
2022-11-09T17:59:47.303Z,10.20
2022-11-09T18:02:35.507Z,7.13
2022-11-09T18:05:21.897Z,6.05
2022-11-09T18:08:10.257Z,10.30
2022-11-09T18:11:01.652Z,10.68
2022-11-09T18:13:49.160Z,9.13
2022-11-09T18:16:35.253Z,9.52
2022-11-09T18:19:21.941Z,10.55
2022-11-09T18:22:12.488Z,9.95
2022-11-09T18:24:59.348Z,12.88
2022-11-09T18:27:45.711Z,10.13
2022-11-09T18:30:33.005Z,8.82
2022-11-09T18:33:19.195Z,7.68
2022-11-09T18:36:09.399Z,6.20
2022-11-09T18:38:56.084Z,8.77
2022-11-09T18:41:42.279Z,6.00
2022-11-09T18:44:28.220Z,4.68
2022-11-09T18:47:15.239Z,6.30
2022-11-09T18:50:01.768Z,5.93
2022-11-09T18:52:47.812Z,8.48
2022-11-09T18:55:34.708Z,10.57
2022-11-09T18:58:21.402Z,10.70
2022-11-09T19:01:08.909Z,11.85
2022-11-09T19:03:59.261Z,20.85
2022-11-09T19:06:46.149Z,21.65
2022-11-09T19:09:35.929Z,23.10
2022-11-09T19:12:22.468Z,17.45
2022-11-09T19:15:09.368Z,15.43
2022-11-09T19:17:55.493Z,14.57
2022-11-09T19:20:41.794Z,16.40
2022-11-09T19:23:32.999Z,14.48
2022-11-09T19:26:23.539Z,18.38
2022-11-09T19:29:13.620Z,14.85
2022-11-09T19:31:59.775Z,11.82
2022-11-09T19:34:46.817Z,13.65
2022-11-09T19:37:33.440Z,11.68
2022-11-09T19:40:20.598Z,10.25
2022-11-09T19:43:07.114Z,11.20
2022-11-09T19:45:53.191Z,10.88
2022-11-09T19:48:47.088Z,9.10
2022-11-09T19:51:34.949Z,18.13
2022-11-09T19:54:21.231Z,26.15
2022-11-09T19:57:07.320Z,16.48
2022-11-09T19:59:53.697Z,12.70
2022-11-09T20:02:40.080Z,13.18
2022-11-09T20:05:26.203Z,12.40
2022-11-09T20:08:12.840Z,12.13
2022-11-09T20:11:07.289Z,13.18
2022-11-09T20:13:54.864Z,12.32
2022-11-09T20:16:42.651Z,14.02
2022-11-09T20:19:28.823Z,14.13
2022-11-09T20:22:15.347Z,13.32
2022-11-09T20:25:01.523Z,9.60
2022-11-09T20:27:47.786Z,11.00
2022-11-09T20:30:33.962Z,20.52
2022-11-09T20:33:20.834Z,21.23
2022-11-09T20:36:08.103Z,22.53
2022-11-09T20:38:55.012Z,18.00
2022-11-09T20:41:42.791Z,16.30
2022-11-09T20:44:28.851Z,18.10
2022-11-09T20:47:25.761Z,15.60
2022-11-09T20:50:23.823Z,14.73
2022-11-09T20:53:10.232Z,13.13
2022-11-09T20:55:56.306Z,11.77
2022-11-09T20:58:42.898Z,11.95
2022-11-09T21:01:29.322Z,12.23
2022-11-09T21:04:16.496Z,14.57
2022-11-09T21:07:02.893Z,10.85
2022-11-09T21:09:49.328Z,11.77
2022-11-09T21:12:35.700Z,12.83
2022-11-09T21:15:21.860Z,12.13
2022-11-09T21:18:08.627Z,13.95
2022-11-09T21:20:54.634Z,8.35
2022-11-09T21:24:00.720Z,10.15
2022-11-09T21:27:08.537Z,9.43
2022-11-09T21:29:58.903Z,10.68
2022-11-09T21:32:45.238Z,7.18
2022-11-09T21:35:31.373Z,6.85
2022-11-09T21:38:17.862Z,10.93
2022-11-09T21:41:30.889Z,8.43
2022-11-09T21:44:17.369Z,6.90
2022-11-09T21:47:04.380Z,4.85
2022-11-09T21:49:50.500Z,7.53
2022-11-09T21:52:36.627Z,10.27
2022-11-09T21:55:23.209Z,7.25
2022-11-09T21:58:09.170Z,10.05
2022-11-09T22:01:03.786Z,10.35
2022-11-09T22:03:51.347Z,15.63
2022-11-09T22:06:39.786Z,19.20
2022-11-09T22:09:29.533Z,13.68
2022-11-09T22:12:37.596Z,14.32
2022-11-09T22:15:42.310Z,14.10
2022-11-09T22:18:50.135Z,12.43
2022-11-09T22:21:36.278Z,10.30
2022-11-09T22:24:22.607Z,9.45
2022-11-09T22:27:09.300Z,10.27
2022-11-09T22:29:55.658Z,8.95
2022-11-09T22:32:43.959Z,7.25
2022-11-09T22:35:30.561Z,9.40
2022-11-09T22:38:16.534Z,4.80
2022-11-09T22:41:04.774Z,8.30
2022-11-09T22:43:52.642Z,7.38
2022-11-09T22:46:39.072Z,8.18
2022-11-09T22:49:25.118Z,11.95
2022-11-09T22:52:18.368Z,9.35
2022-11-09T22:55:04.994Z,9.43
2022-11-09T22:57:55.157Z,8.80
2022-11-09T23:00:41.819Z,8.38
2022-11-09T23:03:27.885Z,9.63
2022-11-09T23:06:19.591Z,9.43
2022-11-09T23:09:06.558Z,9.20
2022-11-09T23:11:53.088Z,10.75
2022-11-09T23:14:58.016Z,9.20
2022-11-09T23:18:02.822Z,11.60
2022-11-09T23:20:49.237Z,6.40
2022-11-09T23:23:35.836Z,8.13
2022-11-09T23:26:23.918Z,5.90
2022-11-09T23:29:10.189Z,9.57
2022-11-09T23:31:57.308Z,7.32
2022-11-09T23:34:43.393Z,7.32
2022-11-09T23:37:29.984Z,7.85
2022-11-09T23:40:16.260Z,9.25
2022-11-09T23:43:05.115Z,8.30
2022-11-09T23:45:51.490Z,7.55
2022-11-09T23:48:39.700Z,6.55
2022-11-09T23:51:25.738Z,9.68
2022-11-09T23:54:12.505Z,5.55
2022-11-09T23:56:58.926Z,5.38
2022-11-09T23:59:44.965Z,7.38
